sensor_id;sensor_type;location;lat;lon;timestamp;temperature;humidity
17174;DHT22;8702;48.130;-1.696;2024-01-07T00:01:08;7.00;99.90
17174;DHT22;8702;48.130;-1.696;2024-01-07T00:03:36;7.00;99.90
17174;DHT22;8702;48.130;-1.696;2024-01-07T00:06:03;7.10;99.90
17174;DHT22;8702;48.130;-1.696;2024-01-07T00:08:31;7.00;99.90
17174;DHT22;8702;48.130;-1.696;2024-01-07T00:10:58;7.00;99.90
17174;DHT22;8702;48.130;-1.696;2024-01-07T00:13:25;7.10;99.90
17174;DHT22;8702;48.130;-1.696;2024-01-07T00:15:52;7.00;99.90
17174;DHT22;8702;48.130;-1.696;2024-01-07T00:18:21;7.00;99.90
17174;DHT22;8702;48.130;-1.696;2024-01-07T00:20:49;6.90;99.90
17174;DHT22;8702;48.130;-1.696;2024-01-07T00:23:16;7.00;99.90
17174;DHT22;8702;48.130;-1.696;2024-01-07T00:25:44;7.00;99.90
17174;DHT22;8702;48.130;-1.696;2024-01-07T00:28:11;6.90;99.90
17174;DHT22;8702;48.130;-1.696;2024-01-07T00:30:38;6.80;99.90
17174;DHT22;8702;48.130;-1.696;2024-01-07T00:33:05;6.80;99.90
17174;DHT22;8702;48.130;-1.696;2024-01-07T00:35:31;6.80;99.90
17174;DHT22;8702;48.130;-1.696;2024-01-07T00:37:58;6.80;99.90
17174;DHT22;8702;48.130;-1.696;2024-01-07T00:40:25;6.70;99.90
17174;DHT22;8702;48.130;-1.696;2024-01-07T00:42:53;6.80;99.90
17174;DHT22;8702;48.130;-1.696;2024-01-07T00:45:20;6.90;99.90
17174;DHT22;8702;48.130;-1.696;2024-01-07T00:47:48;6.70;99.90
17174;DHT22;8702;48.130;-1.696;2024-01-07T00:50:15;6.60;99.90
17174;DHT22;8702;48.130;-1.696;2024-01-07T00:52:41;6.50;99.90
17174;DHT22;8702;48.130;-1.696;2024-01-07T00:55:09;6.50;99.90
17174;DHT22;8702;48.130;-1.696;2024-01-07T00:57:35;6.50;99.90
17174;DHT22;8702;48.130;-1.696;2024-01-07T01:00:07;6.40;99.90
17174;DHT22;8702;48.130;-1.696;2024-01-07T01:02:34;6.40;99.90
17174;DHT22;8702;48.130;-1.696;2024-01-07T01:05:01;6.30;99.90
17174;DHT22;8702;48.130;-1.696;2024-01-07T01:07:28;6.30;99.90
17174;DHT22;8702;48.130;-1.696;2024-01-07T01:09:55;6.30;99.90
17174;DHT22;8702;48.130;-1.696;2024-01-07T01:12:21;6.30;99.90
17174;DHT22;8702;48.130;-1.696;2024-01-07T01:14:48;6.20;99.90
17174;DHT22;8702;48.130;-1.696;2024-01-07T01:17:16;6.50;99.90
17174;DHT22;8702;48.130;-1.696;2024-01-07T01:19:43;6.60;99.90
17174;DHT22;8702;48.130;-1.696;2024-01-07T01:22:10;6.70;99.90
17174;DHT22;8702;48.130;-1.696;2024-01-07T01:24:37;6.70;99.90
17174;DHT22;8702;48.130;-1.696;2024-01-07T01:27:04;6.60;99.90
17174;DHT22;8702;48.130;-1.696;2024-01-07T01:29:31;6.50;99.90
17174;DHT22;8702;48.130;-1.696;2024-01-07T01:31:58;6.40;99.90
17174;DHT22;8702;48.130;-1.696;2024-01-07T01:34:26;6.50;99.90
17174;DHT22;8702;48.130;-1.696;2024-01-07T01:36:53;6.40;99.90
17174;DHT22;8702;48.130;-1.696;2024-01-07T01:39:20;6.40;99.90
17174;DHT22;8702;48.130;-1.696;2024-01-07T01:41:47;6.30;99.90
17174;DHT22;8702;48.130;-1.696;2024-01-07T01:44:13;6.30;99.90
17174;DHT22;8702;48.130;-1.696;2024-01-07T01:46:40;6.10;99.90
17174;DHT22;8702;48.130;-1.696;2024-01-07T01:49:07;6.20;99.90
17174;DHT22;8702;48.130;-1.696;2024-01-07T01:51:36;6.20;99.90
17174;DHT22;8702;48.130;-1.696;2024-01-07T01:54:03;6.30;99.90
17174;DHT22;8702;48.130;-1.696;2024-01-07T01:56:30;6.20;99.90
17174;DHT22;8702;48.130;-1.696;2024-01-07T01:58:57;6.10;99.90
17174;DHT22;8702;48.130;-1.696;2024-01-07T02:01:24;6.10;99.90
17174;DHT22;8702;48.130;-1.696;2024-01-07T02:03:51;6.10;99.90
17174;DHT22;8702;48.130;-1.696;2024-01-07T02:06:20;6.10;99.90
17174;DHT22;8702;48.130;-1.696;2024-01-07T02:08:49;6.10;99.90
17174;DHT22;8702;48.130;-1.696;2024-01-07T02:11:17;6.20;99.90
17174;DHT22;8702;48.130;-1.696;2024-01-07T02:13:44;6.10;99.90
17174;DHT22;8702;48.130;-1.696;2024-01-07T02:16:11;6.10;99.90
17174;DHT22;8702;48.130;-1.696;2024-01-07T02:18:41;6.20;99.90
17174;DHT22;8702;48.130;-1.696;2024-01-07T02:21:10;6.20;99.90
17174;DHT22;8702;48.130;-1.696;2024-01-07T02:23:37;6.10;99.90
17174;DHT22;8702;48.130;-1.696;2024-01-07T02:26:05;6.30;99.90
17174;DHT22;8702;48.130;-1.696;2024-01-07T02:28:33;6.20;99.90
17174;DHT22;8702;48.130;-1.696;2024-01-07T02:31:00;6.20;99.90
17174;DHT22;8702;48.130;-1.696;2024-01-07T02:33:27;6.30;99.90
17174;DHT22;8702;48.130;-1.696;2024-01-07T02:35:54;6.30;99.90
17174;DHT22;8702;48.130;-1.696;2024-01-07T02:38:21;6.40;99.90
17174;DHT22;8702;48.130;-1.696;2024-01-07T02:40:48;6.20;99.90
17174;DHT22;8702;48.130;-1.696;2024-01-07T02:43:16;6.20;99.90
17174;DHT22;8702;48.130;-1.696;2024-01-07T02:45:43;6.10;99.90
17174;DHT22;8702;48.130;-1.696;2024-01-07T02:48:10;6.00;99.90
17174;DHT22;8702;48.130;-1.696;2024-01-07T02:50:37;6.00;99.90
17174;DHT22;8702;48.130;-1.696;2024-01-07T02:53:04;5.90;99.90
17174;DHT22;8702;48.130;-1.696;2024-01-07T02:55:30;6.00;99.90
17174;DHT22;8702;48.130;-1.696;2024-01-07T02:57:57;6.10;99.90
17174;DHT22;8702;48.130;-1.696;2024-01-07T03:00:25;6.10;99.90
17174;DHT22;8702;48.130;-1.696;2024-01-07T03:02:52;6.20;99.90
17174;DHT22;8702;48.130;-1.696;2024-01-07T03:05:19;6.20;99.90
17174;DHT22;8702;48.130;-1.696;2024-01-07T03:07:46;6.10;99.90
17174;DHT22;8702;48.130;-1.696;2024-01-07T03:10:13;6.10;99.90
17174;DHT22;8702;48.130;-1.696;2024-01-07T03:12:40;6.20;99.90
17174;DHT22;8702;48.130;-1.696;2024-01-07T03:15:07;6.10;99.90
17174;DHT22;8702;48.130;-1.696;2024-01-07T03:17:35;6.10;99.90
17174;DHT22;8702;48.130;-1.696;2024-01-07T03:20:02;6.20;99.90
17174;DHT22;8702;48.130;-1.696;2024-01-07T03:22:29;6.20;99.90
17174;DHT22;8702;48.130;-1.696;2024-01-07T03:24:56;6.30;99.90
17174;DHT22;8702;48.130;-1.696;2024-01-07T03:27:23;6.30;99.90
17174;DHT22;8702;48.130;-1.696;2024-01-07T03:29:50;6.40;99.90
17174;DHT22;8702;48.130;-1.696;2024-01-07T03:32:17;6.40;99.90
17174;DHT22;8702;48.130;-1.696;2024-01-07T03:34:45;6.40;99.90
17174;DHT22;8702;48.130;-1.696;2024-01-07T03:37:12;6.50;99.90
17174;DHT22;8702;48.130;-1.696;2024-01-07T03:39:39;6.50;99.90
17174;DHT22;8702;48.130;-1.696;2024-01-07T03:42:06;6.40;99.90
17174;DHT22;8702;48.130;-1.696;2024-01-07T03:44:37;6.50;99.90
17174;DHT22;8702;48.130;-1.696;2024-01-07T03:47:04;6.50;99.90
17174;DHT22;8702;48.130;-1.696;2024-01-07T03:49:31;6.40;99.90
17174;DHT22;8702;48.130;-1.696;2024-01-07T03:51:59;6.50;99.90
17174;DHT22;8702;48.130;-1.696;2024-01-07T03:54:26;6.60;99.90
17174;DHT22;8702;48.130;-1.696;2024-01-07T03:56:52;6.50;99.90
17174;DHT22;8702;48.130;-1.696;2024-01-07T03:59:19;6.50;99.90
17174;DHT22;8702;48.130;-1.696;2024-01-07T04:01:48;6.60;99.90
17174;DHT22;8702;48.130;-1.696;2024-01-07T04:04:15;6.60;99.90
17174;DHT22;8702;48.130;-1.696;2024-01-07T04:06:42;6.50;99.90
17174;DHT22;8702;48.130;-1.696;2024-01-07T04:09:10;6.40;99.90
17174;DHT22;8702;48.130;-1.696;2024-01-07T04:11:39;6.50;99.90
17174;DHT22;8702;48.130;-1.696;2024-01-07T04:14:07;6.50;99.90
17174;DHT22;8702;48.130;-1.696;2024-01-07T04:16:34;6.50;99.90
17174;DHT22;8702;48.130;-1.696;2024-01-07T04:19:01;6.50;99.90
17174;DHT22;8702;48.130;-1.696;2024-01-07T04:21:28;6.50;99.90
17174;DHT22;8702;48.130;-1.696;2024-01-07T04:23:54;6.40;99.90
17174;DHT22;8702;48.130;-1.696;2024-01-07T04:26:23;6.30;99.90
17174;DHT22;8702;48.130;-1.696;2024-01-07T04:28:49;6.30;99.90
17174;DHT22;8702;48.130;-1.696;2024-01-07T04:31:16;6.40;99.90
17174;DHT22;8702;48.130;-1.696;2024-01-07T04:33:43;6.40;99.90
17174;DHT22;8702;48.130;-1.696;2024-01-07T04:36:10;6.30;99.90
17174;DHT22;8702;48.130;-1.696;2024-01-07T04:38:37;6.40;99.90
17174;DHT22;8702;48.130;-1.696;2024-01-07T04:41:03;6.30;99.90
17174;DHT22;8702;48.130;-1.696;2024-01-07T04:43:34;6.40;99.90
17174;DHT22;8702;48.130;-1.696;2024-01-07T04:46:00;6.40;99.90
17174;DHT22;8702;48.130;-1.696;2024-01-07T04:48:27;6.50;99.90
17174;DHT22;8702;48.130;-1.696;2024-01-07T04:50:54;6.40;99.90
17174;DHT22;8702;48.130;-1.696;2024-01-07T04:53:21;6.30;99.90
17174;DHT22;8702;48.130;-1.696;2024-01-07T04:55:48;6.30;99.90
17174;DHT22;8702;48.130;-1.696;2024-01-07T04:58:15;6.30;99.90
17174;DHT22;8702;48.130;-1.696;2024-01-07T05:00:43;6.40;99.90
17174;DHT22;8702;48.130;-1.696;2024-01-07T05:03:09;6.30;99.90
17174;DHT22;8702;48.130;-1.696;2024-01-07T05:05:36;6.30;99.90
17174;DHT22;8702;48.130;-1.696;2024-01-07T05:08:04;6.30;99.90
17174;DHT22;8702;48.130;-1.696;2024-01-07T05:10:31;6.30;99.90
17174;DHT22;8702;48.130;-1.696;2024-01-07T05:12:58;6.50;99.90
17174;DHT22;8702;48.130;-1.696;2024-01-07T05:15:30;6.60;99.90
17174;DHT22;8702;48.130;-1.696;2024-01-07T05:17:58;6.70;99.90
17174;DHT22;8702;48.130;-1.696;2024-01-07T05:20:25;6.70;99.90
17174;DHT22;8702;48.130;-1.696;2024-01-07T05:22:52;6.60;99.90
17174;DHT22;8702;48.130;-1.696;2024-01-07T05:25:19;6.50;99.90
17174;DHT22;8702;48.130;-1.696;2024-01-07T05:27:45;6.50;99.90
17174;DHT22;8702;48.130;-1.696;2024-01-07T05:30:12;6.40;99.90
17174;DHT22;8702;48.130;-1.696;2024-01-07T05:32:39;6.50;99.90
17174;DHT22;8702;48.130;-1.696;2024-01-07T05:35:08;6.50;99.90
17174;DHT22;8702;48.130;-1.696;2024-01-07T05:37:35;6.60;99.90
17174;DHT22;8702;48.130;-1.696;2024-01-07T05:40:02;6.50;99.90
17174;DHT22;8702;48.130;-1.696;2024-01-07T05:42:29;6.50;99.90
17174;DHT22;8702;48.130;-1.696;2024-01-07T05:44:55;6.50;99.90
17174;DHT22;8702;48.130;-1.696;2024-01-07T05:47:22;6.60;99.90
17174;DHT22;8702;48.130;-1.696;2024-01-07T05:49:49;6.60;99.90
17174;DHT22;8702;48.130;-1.696;2024-01-07T05:52:19;6.70;99.90
17174;DHT22;8702;48.130;-1.696;2024-01-07T05:54:45;6.80;99.90
17174;DHT22;8702;48.130;-1.696;2024-01-07T05:57:15;6.90;99.90
17174;DHT22;8702;48.130;-1.696;2024-01-07T05:59:43;6.90;99.90
17174;DHT22;8702;48.130;-1.696;2024-01-07T06:02:10;7.00;99.90
17174;DHT22;8702;48.130;-1.696;2024-01-07T06:04:38;7.00;99.90
17174;DHT22;8702;48.130;-1.696;2024-01-07T06:07:05;7.00;99.90
17174;DHT22;8702;48.130;-1.696;2024-01-07T06:09:33;7.10;99.90
17174;DHT22;8702;48.130;-1.696;2024-01-07T06:12:00;7.20;99.90
17174;DHT22;8702;48.130;-1.696;2024-01-07T06:14:27;7.20;99.90
17174;DHT22;8702;48.130;-1.696;2024-01-07T06:16:53;7.20;99.90
17174;DHT22;8702;48.130;-1.696;2024-01-07T06:19:20;7.20;99.90
17174;DHT22;8702;48.130;-1.696;2024-01-07T06:21:47;7.20;99.90
17174;DHT22;8702;48.130;-1.696;2024-01-07T06:24:14;7.20;99.90
17174;DHT22;8702;48.130;-1.696;2024-01-07T06:26:42;7.20;99.90
17174;DHT22;8702;48.130;-1.696;2024-01-07T06:29:09;7.20;99.90
17174;DHT22;8702;48.130;-1.696;2024-01-07T06:31:36;7.20;99.90
17174;DHT22;8702;48.130;-1.696;2024-01-07T06:34:03;7.20;99.90
17174;DHT22;8702;48.130;-1.696;2024-01-07T06:36:30;7.20;99.90
17174;DHT22;8702;48.130;-1.696;2024-01-07T06:38:56;6.90;99.90
17174;DHT22;8702;48.130;-1.696;2024-01-07T06:41:23;6.80;99.90
17174;DHT22;8702;48.130;-1.696;2024-01-07T06:43:51;6.90;99.90
17174;DHT22;8702;48.130;-1.696;2024-01-07T06:46:22;6.90;99.90
17174;DHT22;8702;48.130;-1.696;2024-01-07T06:48:49;6.80;99.90
17174;DHT22;8702;48.130;-1.696;2024-01-07T06:51:16;6.70;99.90
17174;DHT22;8702;48.130;-1.696;2024-01-07T06:53:42;6.70;99.90
17174;DHT22;8702;48.130;-1.696;2024-01-07T06:56:09;6.70;99.90
17174;DHT22;8702;48.130;-1.696;2024-01-07T06:58:36;6.70;99.90
17174;DHT22;8702;48.130;-1.696;2024-01-07T07:01:06;6.60;99.90
17174;DHT22;8702;48.130;-1.696;2024-01-07T07:03:33;6.70;99.90
17174;DHT22;8702;48.130;-1.696;2024-01-07T07:06:00;6.70;99.90
17174;DHT22;8702;48.130;-1.696;2024-01-07T07:08:27;6.70;99.90
17174;DHT22;8702;48.130;-1.696;2024-01-07T07:10:54;6.50;99.90
17174;DHT22;8702;48.130;-1.696;2024-01-07T07:13:20;6.50;99.90
17174;DHT22;8702;48.130;-1.696;2024-01-07T07:15:47;6.30;99.90
17174;DHT22;8702;48.130;-1.696;2024-01-07T07:18:15;6.30;99.90
17174;DHT22;8702;48.130;-1.696;2024-01-07T07:20:42;6.40;99.90
17174;DHT22;8702;48.130;-1.696;2024-01-07T07:23:09;6.50;99.90
17174;DHT22;8702;48.130;-1.696;2024-01-07T07:25:36;6.60;99.90
17174;DHT22;8702;48.130;-1.696;2024-01-07T07:28:03;6.60;99.90
17174;DHT22;8702;48.130;-1.696;2024-01-07T07:30:30;6.60;99.90
17174;DHT22;8702;48.130;-1.696;2024-01-07T07:32:57;6.60;99.90
17174;DHT22;8702;48.130;-1.696;2024-01-07T07:35:25;6.60;99.90
17174;DHT22;8702;48.130;-1.696;2024-01-07T07:37:52;6.60;99.90
17174;DHT22;8702;48.130;-1.696;2024-01-07T07:40:18;6.40;99.90
17174;DHT22;8702;48.130;-1.696;2024-01-07T07:42:45;6.60;99.90
17174;DHT22;8702;48.130;-1.696;2024-01-07T07:45:12;6.60;99.90
17174;DHT22;8702;48.130;-1.696;2024-01-07T07:47:39;6.50;99.90
17174;DHT22;8702;48.130;-1.696;2024-01-07T07:50:10;6.60;99.90
17174;DHT22;8702;48.130;-1.696;2024-01-07T07:52:38;6.60;99.90
17174;DHT22;8702;48.130;-1.696;2024-01-07T07:55:05;6.60;99.90
17174;DHT22;8702;48.130;-1.696;2024-01-07T07:57:33;6.60;99.90
17174;DHT22;8702;48.130;-1.696;2024-01-07T08:00:00;6.60;99.90
17174;DHT22;8702;48.130;-1.696;2024-01-07T08:02:27;6.60;99.90
17174;DHT22;8702;48.130;-1.696;2024-01-07T08:04:54;6.60;99.90
17174;DHT22;8702;48.130;-1.696;2024-01-07T08:07:21;6.60;99.90
17174;DHT22;8702;48.130;-1.696;2024-01-07T08:09:49;6.50;99.90
17174;DHT22;8702;48.130;-1.696;2024-01-07T08:12:16;6.50;99.90
17174;DHT22;8702;48.130;-1.696;2024-01-07T08:14:42;6.50;99.90
17174;DHT22;8702;48.130;-1.696;2024-01-07T08:17:09;6.30;99.90
17174;DHT22;8702;48.130;-1.696;2024-01-07T08:19:36;6.40;99.90
17174;DHT22;8702;48.130;-1.696;2024-01-07T08:22:03;6.40;99.90
17174;DHT22;8702;48.130;-1.696;2024-01-07T08:24:30;6.30;99.90
17174;DHT22;8702;48.130;-1.696;2024-01-07T08:26:59;6.20;99.90
17174;DHT22;8702;48.130;-1.696;2024-01-07T08:29:25;6.20;99.90
17174;DHT22;8702;48.130;-1.696;2024-01-07T08:31:52;6.30;99.90
17174;DHT22;8702;48.130;-1.696;2024-01-07T08:34:19;6.20;99.90
17174;DHT22;8702;48.130;-1.696;2024-01-07T08:36:46;6.20;99.90
17174;DHT22;8702;48.130;-1.696;2024-01-07T08:39:14;6.20;99.90
17174;DHT22;8702;48.130;-1.696;2024-01-07T08:41:41;6.20;99.90
17174;DHT22;8702;48.130;-1.696;2024-01-07T08:44:09;6.00;99.90
17174;DHT22;8702;48.130;-1.696;2024-01-07T08:46:36;6.00;99.90
17174;DHT22;8702;48.130;-1.696;2024-01-07T08:49:03;6.10;99.90
17174;DHT22;8702;48.130;-1.696;2024-01-07T08:51:30;6.00;99.90
17174;DHT22;8702;48.130;-1.696;2024-01-07T08:53:57;6.00;99.90
17174;DHT22;8702;48.130;-1.696;2024-01-07T08:56:24;6.00;99.90
17174;DHT22;8702;48.130;-1.696;2024-01-07T08:58:51;5.90;99.90
17174;DHT22;8702;48.130;-1.696;2024-01-07T09:01:20;6.00;99.90
17174;DHT22;8702;48.130;-1.696;2024-01-07T09:03:46;6.10;99.90
17174;DHT22;8702;48.130;-1.696;2024-01-07T09:06:13;6.20;99.90
17174;DHT22;8702;48.130;-1.696;2024-01-07T09:08:40;6.10;99.90
17174;DHT22;8702;48.130;-1.696;2024-01-07T09:11:08;6.20;99.90
17174;DHT22;8702;48.130;-1.696;2024-01-07T09:13:36;6.10;99.90
17174;DHT22;8702;48.130;-1.696;2024-01-07T09:16:03;6.30;99.90
17174;DHT22;8702;48.130;-1.696;2024-01-07T09:18:32;6.30;99.90
17174;DHT22;8702;48.130;-1.696;2024-01-07T09:20:58;6.30;99.90
17174;DHT22;8702;48.130;-1.696;2024-01-07T09:23:25;6.30;99.90
17174;DHT22;8702;48.130;-1.696;2024-01-07T09:25:52;6.30;99.90
17174;DHT22;8702;48.130;-1.696;2024-01-07T09:28:19;6.20;99.90
17174;DHT22;8702;48.130;-1.696;2024-01-07T09:30:45;6.20;99.90
17174;DHT22;8702;48.130;-1.696;2024-01-07T09:33:12;6.20;99.90
17174;DHT22;8702;48.130;-1.696;2024-01-07T09:35:42;6.20;99.90
17174;DHT22;8702;48.130;-1.696;2024-01-07T09:38:09;6.30;99.90
17174;DHT22;8702;48.130;-1.696;2024-01-07T09:40:38;6.40;99.90
17174;DHT22;8702;48.130;-1.696;2024-01-07T09:43:05;6.60;99.90
17174;DHT22;8702;48.130;-1.696;2024-01-07T09:45:32;6.50;99.90
17174;DHT22;8702;48.130;-1.696;2024-01-07T09:47:59;6.50;99.90
17174;DHT22;8702;48.130;-1.696;2024-01-07T09:50:26;6.50;99.90
17174;DHT22;8702;48.130;-1.696;2024-01-07T09:52:56;6.50;99.90
17174;DHT22;8702;48.130;-1.696;2024-01-07T09:55:27;6.50;99.90
17174;DHT22;8702;48.130;-1.696;2024-01-07T09:57:58;6.50;99.90
17174;DHT22;8702;48.130;-1.696;2024-01-07T10:00:26;6.60;99.90
17174;DHT22;8702;48.130;-1.696;2024-01-07T10:02:53;6.70;99.90
17174;DHT22;8702;48.130;-1.696;2024-01-07T10:05:20;6.70;99.90
17174;DHT22;8702;48.130;-1.696;2024-01-07T10:07:46;6.80;99.90
17174;DHT22;8702;48.130;-1.696;2024-01-07T10:10:16;6.90;99.90
17174;DHT22;8702;48.130;-1.696;2024-01-07T10:12:44;6.90;99.90
17174;DHT22;8702;48.130;-1.696;2024-01-07T10:15:11;7.10;99.90
17174;DHT22;8702;48.130;-1.696;2024-01-07T10:17:39;6.80;99.90
17174;DHT22;8702;48.130;-1.696;2024-01-07T10:20:08;6.80;99.90
17174;DHT22;8702;48.130;-1.696;2024-01-07T10:22:36;6.90;99.90
17174;DHT22;8702;48.130;-1.696;2024-01-07T10:25:04;6.90;99.90
17174;DHT22;8702;48.130;-1.696;2024-01-07T10:27:35;6.90;99.90
17174;DHT22;8702;48.130;-1.696;2024-01-07T10:30:02;7.00;99.90
17174;DHT22;8702;48.130;-1.696;2024-01-07T10:32:29;7.00;99.90
17174;DHT22;8702;48.130;-1.696;2024-01-07T10:35:02;6.90;99.90
17174;DHT22;8702;48.130;-1.696;2024-01-07T10:37:29;6.90;99.90
17174;DHT22;8702;48.130;-1.696;2024-01-07T10:39:58;6.90;99.90
17174;DHT22;8702;48.130;-1.696;2024-01-07T10:42:29;6.90;99.90
17174;DHT22;8702;48.130;-1.696;2024-01-07T10:44:59;6.90;99.90
17174;DHT22;8702;48.130;-1.696;2024-01-07T10:47:29;6.90;99.90
17174;DHT22;8702;48.130;-1.696;2024-01-07T10:49:57;6.80;99.90
17174;DHT22;8702;48.130;-1.696;2024-01-07T10:52:26;6.80;99.90
17174;DHT22;8702;48.130;-1.696;2024-01-07T10:54:56;6.80;99.90
17174;DHT22;8702;48.130;-1.696;2024-01-07T10:57:31;6.80;99.90
17174;DHT22;8702;48.130;-1.696;2024-01-07T11:00:02;6.80;99.90
17174;DHT22;8702;48.130;-1.696;2024-01-07T11:02:32;6.80;99.90
17174;DHT22;8702;48.130;-1.696;2024-01-07T11:05:07;6.90;99.90
17174;DHT22;8702;48.130;-1.696;2024-01-07T11:07:41;5.00;99.90
17174;DHT22;8702;48.130;-1.696;2024-01-07T11:10:13;7.90;99.90
17174;DHT22;8702;48.130;-1.696;2024-01-07T11:12:43;6.80;99.90
17174;DHT22;8702;48.130;-1.696;2024-01-07T11:15:11;7.00;99.90
17174;DHT22;8702;48.130;-1.696;2024-01-07T11:17:41;7.00;99.90
17174;DHT22;8702;48.130;-1.696;2024-01-07T11:20:20;7.10;99.90
17174;DHT22;8702;48.130;-1.696;2024-01-07T11:22:48;7.10;99.90
17174;DHT22;8702;48.130;-1.696;2024-01-07T11:25:28;7.10;99.90
17174;DHT22;8702;48.130;-1.696;2024-01-07T11:27:56;7.10;99.90
17174;DHT22;8702;48.130;-1.696;2024-01-07T11:30:24;7.10;99.90
17174;DHT22;8702;48.130;-1.696;2024-01-07T11:32:57;7.10;99.90
17174;DHT22;8702;48.130;-1.696;2024-01-07T11:35:54;7.10;99.90
17174;DHT22;8702;48.130;-1.696;2024-01-07T11:38:22;7.20;99.90
17174;DHT22;8702;48.130;-1.696;2024-01-07T11:40:49;7.20;99.90
17174;DHT22;8702;48.130;-1.696;2024-01-07T11:43:16;7.30;99.90
17174;DHT22;8702;48.130;-1.696;2024-01-07T11:45:45;7.30;99.90
17174;DHT22;8702;48.130;-1.696;2024-01-07T11:48:12;7.10;99.90
17174;DHT22;8702;48.130;-1.696;2024-01-07T11:50:39;7.10;99.90
17174;DHT22;8702;48.130;-1.696;2024-01-07T11:53:06;7.30;99.90
17174;DHT22;8702;48.130;-1.696;2024-01-07T11:55:34;7.30;99.90
17174;DHT22;8702;48.130;-1.696;2024-01-07T11:58:02;7.20;99.90
17174;DHT22;8702;48.130;-1.696;2024-01-07T12:00:31;7.20;99.90
17174;DHT22;8702;48.130;-1.696;2024-01-07T12:02:59;7.30;99.90
17174;DHT22;8702;48.130;-1.696;2024-01-07T12:05:27;7.20;99.90
17174;DHT22;8702;48.130;-1.696;2024-01-07T12:07:54;7.20;99.90
17174;DHT22;8702;48.130;-1.696;2024-01-07T12:10:20;7.20;99.90
17174;DHT22;8702;48.130;-1.696;2024-01-07T12:12:47;7.20;99.90
17174;DHT22;8702;48.130;-1.696;2024-01-07T12:15:15;7.20;99.90
17174;DHT22;8702;48.130;-1.696;2024-01-07T12:17:42;7.20;99.90
17174;DHT22;8702;48.130;-1.696;2024-01-07T12:20:11;7.40;99.90
17174;DHT22;8702;48.130;-1.696;2024-01-07T12:22:37;7.30;99.90
17174;DHT22;8702;48.130;-1.696;2024-01-07T12:25:06;7.30;99.90
17174;DHT22;8702;48.130;-1.696;2024-01-07T12:27:34;7.30;99.90
17174;DHT22;8702;48.130;-1.696;2024-01-07T12:30:01;7.30;99.90
17174;DHT22;8702;48.130;-1.696;2024-01-07T12:32:29;7.30;99.90
17174;DHT22;8702;48.130;-1.696;2024-01-07T12:34:57;7.20;99.90
17174;DHT22;8702;48.130;-1.696;2024-01-07T12:37:27;7.20;99.90
17174;DHT22;8702;48.130;-1.696;2024-01-07T12:39:54;7.30;99.90
17174;DHT22;8702;48.130;-1.696;2024-01-07T12:42:21;7.30;99.90
17174;DHT22;8702;48.130;-1.696;2024-01-07T12:44:49;7.30;99.90
17174;DHT22;8702;48.130;-1.696;2024-01-07T12:47:16;7.30;99.90
17174;DHT22;8702;48.130;-1.696;2024-01-07T12:49:42;7.20;99.90
17174;DHT22;8702;48.130;-1.696;2024-01-07T12:52:09;7.20;99.90
17174;DHT22;8702;48.130;-1.696;2024-01-07T12:54:38;7.20;99.90
17174;DHT22;8702;48.130;-1.696;2024-01-07T12:57:05;7.20;99.90
17174;DHT22;8702;48.130;-1.696;2024-01-07T12:59:32;7.20;99.90
17174;DHT22;8702;48.130;-1.696;2024-01-07T13:01:59;7.20;99.90
17174;DHT22;8702;48.130;-1.696;2024-01-07T13:04:26;7.10;99.90
17174;DHT22;8702;48.130;-1.696;2024-01-07T13:06:53;7.10;99.90
17174;DHT22;8702;48.130;-1.696;2024-01-07T13:09:19;7.10;99.90
17174;DHT22;8702;48.130;-1.696;2024-01-07T13:11:48;7.10;99.90
17174;DHT22;8702;48.130;-1.696;2024-01-07T13:14:14;7.10;99.90
17174;DHT22;8702;48.130;-1.696;2024-01-07T13:16:41;7.10;99.90
17174;DHT22;8702;48.130;-1.696;2024-01-07T13:19:08;7.00;99.90
17174;DHT22;8702;48.130;-1.696;2024-01-07T13:21:36;7.00;99.90
17174;DHT22;8702;48.130;-1.696;2024-01-07T13:24:04;7.10;99.90
17174;DHT22;8702;48.130;-1.696;2024-01-07T13:26:30;7.00;99.90
17174;DHT22;8702;48.130;-1.696;2024-01-07T13:28:59;7.00;99.90
17174;DHT22;8702;48.130;-1.696;2024-01-07T13:31:25;7.00;99.90
17174;DHT22;8702;48.130;-1.696;2024-01-07T13:33:52;7.00;99.90
17174;DHT22;8702;48.130;-1.696;2024-01-07T13:36:19;7.00;99.90
17174;DHT22;8702;48.130;-1.696;2024-01-07T13:38:46;7.00;99.90
17174;DHT22;8702;48.130;-1.696;2024-01-07T13:41:15;6.90;99.90
17174;DHT22;8702;48.130;-1.696;2024-01-07T13:43:42;7.00;99.90
17174;DHT22;8702;48.130;-1.696;2024-01-07T13:46:10;7.00;99.90
17174;DHT22;8702;48.130;-1.696;2024-01-07T13:48:37;7.00;99.90
17174;DHT22;8702;48.130;-1.696;2024-01-07T13:51:07;7.10;99.90
17174;DHT22;8702;48.130;-1.696;2024-01-07T13:53:33;7.20;99.90
17174;DHT22;8702;48.130;-1.696;2024-01-07T13:56:01;7.30;99.90
17174;DHT22;8702;48.130;-1.696;2024-01-07T13:58:28;7.30;99.90
17174;DHT22;8702;48.130;-1.696;2024-01-07T14:00:54;7.30;99.90
17174;DHT22;8702;48.130;-1.696;2024-01-07T14:03:23;7.30;99.90
17174;DHT22;8702;48.130;-1.696;2024-01-07T14:05:50;7.40;99.90
17174;DHT22;8702;48.130;-1.696;2024-01-07T14:10:44;7.70;99.90
17174;DHT22;8702;48.130;-1.696;2024-01-07T14:13:11;7.80;99.90
17174;DHT22;8702;48.130;-1.696;2024-01-07T14:15:38;7.80;99.90
17174;DHT22;8702;48.130;-1.696;2024-01-07T14:18:05;7.80;99.90
17174;DHT22;8702;48.130;-1.696;2024-01-07T14:20:33;7.80;99.90
17174;DHT22;8702;48.130;-1.696;2024-01-07T14:23:00;7.90;99.90
17174;DHT22;8702;48.130;-1.696;2024-01-07T14:25:27;7.80;99.90
17174;DHT22;8702;48.130;-1.696;2024-01-07T14:27:53;7.90;99.90
17174;DHT22;8702;48.130;-1.696;2024-01-07T14:30:20;8.00;99.90
17174;DHT22;8702;48.130;-1.696;2024-01-07T14:32:48;8.00;99.90
17174;DHT22;8702;48.130;-1.696;2024-01-07T14:35:16;8.10;99.90
17174;DHT22;8702;48.130;-1.696;2024-01-07T14:37:44;8.30;99.90
17174;DHT22;8702;48.130;-1.696;2024-01-07T14:40:11;8.30;99.90
17174;DHT22;8702;48.130;-1.696;2024-01-07T14:42:38;8.30;99.90
17174;DHT22;8702;48.130;-1.696;2024-01-07T14:45:06;8.40;99.90
17174;DHT22;8702;48.130;-1.696;2024-01-07T14:47:32;8.30;99.90
17174;DHT22;8702;48.130;-1.696;2024-01-07T14:49:59;8.30;99.90
17174;DHT22;8702;48.130;-1.696;2024-01-07T14:52:26;8.30;99.90
17174;DHT22;8702;48.130;-1.696;2024-01-07T14:54:54;8.30;99.90
17174;DHT22;8702;48.130;-1.696;2024-01-07T14:57:21;8.40;99.90
17174;DHT22;8702;48.130;-1.696;2024-01-07T14:59:48;8.40;99.90
17174;DHT22;8702;48.130;-1.696;2024-01-07T15:02:15;8.40;99.90
17174;DHT22;8702;48.130;-1.696;2024-01-07T15:04:42;8.50;99.90
17174;DHT22;8702;48.130;-1.696;2024-01-07T15:07:09;8.40;99.90
17174;DHT22;8702;48.130;-1.696;2024-01-07T15:09:38;8.30;99.90
17174;DHT22;8702;48.130;-1.696;2024-01-07T15:12:07;8.20;99.90
17174;DHT22;8702;48.130;-1.696;2024-01-07T15:14:34;8.20;99.90
17174;DHT22;8702;48.130;-1.696;2024-01-07T15:17:02;8.20;99.90
17174;DHT22;8702;48.130;-1.696;2024-01-07T15:19:29;8.20;99.90
17174;DHT22;8702;48.130;-1.696;2024-01-07T15:21:56;8.20;99.90
17174;DHT22;8702;48.130;-1.696;2024-01-07T15:24:23;8.20;99.90
17174;DHT22;8702;48.130;-1.696;2024-01-07T15:26:50;8.20;99.90
17174;DHT22;8702;48.130;-1.696;2024-01-07T15:29:18;8.30;99.90
17174;DHT22;8702;48.130;-1.696;2024-01-07T15:31:45;8.20;99.90
17174;DHT22;8702;48.130;-1.696;2024-01-07T15:34:12;8.00;99.90
17174;DHT22;8702;48.130;-1.696;2024-01-07T15:36:39;8.00;99.90
17174;DHT22;8702;48.130;-1.696;2024-01-07T15:39:07;7.90;99.90
17174;DHT22;8702;48.130;-1.696;2024-01-07T15:41:35;7.80;99.90
17174;DHT22;8702;48.130;-1.696;2024-01-07T15:44:02;7.80;99.90
17174;DHT22;8702;48.130;-1.696;2024-01-07T15:46:30;7.80;99.90
17174;DHT22;8702;48.130;-1.696;2024-01-07T15:48:57;7.80;99.90